sensor_id;sensor_type;location;lat;lon;timestamp;P1;durP1;ratioP1;P2;durP2;ratioP2
57643;SDS011;43474;46.510;6.686;2022-08-19T00:01:49;8.13;;;6.38;;
57643;SDS011;43474;46.510;6.686;2022-08-19T00:04:20;7.63;;;5.65;;
57643;SDS011;43474;46.510;6.686;2022-08-19T00:06:52;7.30;;;6.07;;
57643;SDS011;43474;46.510;6.686;2022-08-19T00:09:19;7.78;;;6.45;;
57643;SDS011;43474;46.510;6.686;2022-08-19T00:11:47;8.80;;;6.38;;
57643;SDS011;43474;46.510;6.686;2022-08-19T00:14:16;6.85;;;5.90;;
57643;SDS011;43474;46.510;6.686;2022-08-19T00:16:50;6.70;;;5.90;;
57643;SDS011;43474;46.510;6.686;2022-08-19T00:19:19;8.27;;;6.63;;
57643;SDS011;43474;46.510;6.686;2022-08-19T00:21:46;9.88;;;6.55;;
57643;SDS011;43474;46.510;6.686;2022-08-19T00:24:13;8.10;;;6.53;;
57643;SDS011;43474;46.510;6.686;2022-08-19T00:26:40;7.13;;;5.80;;
57643;SDS011;43474;46.510;6.686;2022-08-19T00:29:09;7.70;;;6.22;;
57643;SDS011;43474;46.510;6.686;2022-08-19T00:31:37;6.63;;;5.55;;
57643;SDS011;43474;46.510;6.686;2022-08-19T00:34:06;6.88;;;5.60;;
57643;SDS011;43474;46.510;6.686;2022-08-19T00:36:33;5.93;;;4.93;;
57643;SDS011;43474;46.510;6.686;2022-08-19T00:39:02;5.60;;;4.90;;
57643;SDS011;43474;46.510;6.686;2022-08-19T00:41:30;7.70;;;5.45;;
57643;SDS011;43474;46.510;6.686;2022-08-19T00:44:06;6.70;;;5.28;;
57643;SDS011;43474;46.510;6.686;2022-08-19T00:46:38;9.52;;;5.97;;
57643;SDS011;43474;46.510;6.686;2022-08-19T00:52:05;7.53;;;6.25;;
57643;SDS011;43474;46.510;6.686;2022-08-19T00:54:42;6.55;;;5.25;;
57643;SDS011;43474;46.510;6.686;2022-08-19T00:57:14;7.93;;;5.90;;
57643;SDS011;43474;46.510;6.686;2022-08-19T00:59:51;6.90;;;6.13;;
57643;SDS011;43474;46.510;6.686;2022-08-19T01:02:25;8.07;;;6.10;;
57643;SDS011;43474;46.510;6.686;2022-08-19T01:04:56;8.93;;;6.07;;
57643;SDS011;43474;46.510;6.686;2022-08-19T01:07:28;9.10;;;6.38;;
57643;SDS011;43474;46.510;6.686;2022-08-19T01:10:07;7.38;;;6.00;;
57643;SDS011;43474;46.510;6.686;2022-08-19T01:12:47;7.85;;;5.72;;
57643;SDS011;43474;46.510;6.686;2022-08-19T01:15:24;7.43;;;6.03;;
57643;SDS011;43474;46.510;6.686;2022-08-19T01:18:15;8.40;;;5.95;;
57643;SDS011;43474;46.510;6.686;2022-08-19T01:20:48;4.80;;;3.95;;
57643;SDS011;43474;46.510;6.686;2022-08-19T01:23:26;5.55;;;4.45;;
57643;SDS011;43474;46.510;6.686;2022-08-19T01:26:30;5.90;;;3.40;;
57643;SDS011;43474;46.510;6.686;2022-08-19T01:29:28;4.00;;;3.13;;
57643;SDS011;43474;46.510;6.686;2022-08-19T01:31:59;3.47;;;2.40;;
57643;SDS011;43474;46.510;6.686;2022-08-19T01:34:29;3.28;;;1.88;;
57643;SDS011;43474;46.510;6.686;2022-08-19T01:37:05;2.50;;;2.03;;
57643;SDS011;43474;46.510;6.686;2022-08-19T01:39:40;4.38;;;2.20;;
57643;SDS011;43474;46.510;6.686;2022-08-19T01:42:41;2.85;;;2.55;;
57643;SDS011;43474;46.510;6.686;2022-08-19T01:45:22;3.00;;;2.50;;
57643;SDS011;43474;46.510;6.686;2022-08-19T01:48:07;2.90;;;2.60;;
57643;SDS011;43474;46.510;6.686;2022-08-19T01:50:42;4.75;;;2.90;;
57643;SDS011;43474;46.510;6.686;2022-08-19T01:53:18;4.97;;;3.33;;
57643;SDS011;43474;46.510;6.686;2022-08-19T01:55:45;4.72;;;3.00;;
57643;SDS011;43474;46.510;6.686;2022-08-19T01:58:24;4.38;;;3.03;;
57643;SDS011;43474;46.510;6.686;2022-08-19T02:01:07;6.68;;;3.45;;
57643;SDS011;43474;46.510;6.686;2022-08-19T02:03:40;4.88;;;3.33;;
57643;SDS011;43474;46.510;6.686;2022-08-19T02:06:38;5.80;;;3.42;;
57643;SDS011;43474;46.510;6.686;2022-08-19T02:09:05;5.60;;;2.70;;
57643;SDS011;43474;46.510;6.686;2022-08-19T02:11:40;3.72;;;2.35;;
57643;SDS011;43474;46.510;6.686;2022-08-19T02:14:07;3.85;;;3.10;;
57643;SDS011;43474;46.510;6.686;2022-08-19T02:16:33;3.88;;;2.30;;
57643;SDS011;43474;46.510;6.686;2022-08-19T02:19:01;4.55;;;2.25;;
57643;SDS011;43474;46.510;6.686;2022-08-19T02:21:28;3.72;;;1.92;;
57643;SDS011;43474;46.510;6.686;2022-08-19T02:23:57;4.07;;;2.50;;
57643;SDS011;43474;46.510;6.686;2022-08-19T02:26:23;2.30;;;2.00;;
57643;SDS011;43474;46.510;6.686;2022-08-19T02:28:50;2.45;;;2.00;;
57643;SDS011;43474;46.510;6.686;2022-08-19T02:31:17;2.45;;;2.05;;
57643;SDS011;43474;46.510;6.686;2022-08-19T02:33:46;2.58;;;2.28;;
57643;SDS011;43474;46.510;6.686;2022-08-19T02:36:12;4.57;;;2.13;;
57643;SDS011;43474;46.510;6.686;2022-08-19T02:38:40;2.42;;;2.00;;
57643;SDS011;43474;46.510;6.686;2022-08-19T02:41:11;3.28;;;1.98;;
57643;SDS011;43474;46.510;6.686;2022-08-19T02:43:39;2.85;;;2.50;;
57643;SDS011;43474;46.510;6.686;2022-08-19T02:46:15;4.50;;;2.83;;
57643;SDS011;43474;46.510;6.686;2022-08-19T02:48:43;4.47;;;2.65;;
57643;SDS011;43474;46.510;6.686;2022-08-19T02:51:09;3.42;;;2.58;;
57643;SDS011;43474;46.510;6.686;2022-08-19T02:53:41;4.20;;;2.78;;
57643;SDS011;43474;46.510;6.686;2022-08-19T02:56:07;5.15;;;2.92;;
57643;SDS011;43474;46.510;6.686;2022-08-19T02:58:33;36.88;;;3.75;;
57643;SDS011;43474;46.510;6.686;2022-08-19T03:01:01;2.90;;;2.42;;
57643;SDS011;43474;46.510;6.686;2022-08-19T03:03:30;3.15;;;2.60;;
57643;SDS011;43474;46.510;6.686;2022-08-19T03:06:07;2.97;;;2.03;;
57643;SDS011;43474;46.510;6.686;2022-08-19T03:08:36;2.97;;;2.20;;
57643;SDS011;43474;46.510;6.686;2022-08-19T03:11:03;3.08;;;2.30;;
57643;SDS011;43474;46.510;6.686;2022-08-19T03:13:28;2.97;;;2.28;;
57643;SDS011;43474;46.510;6.686;2022-08-19T03:15:55;3.60;;;2.10;;
57643;SDS011;43474;46.510;6.686;2022-08-19T03:18:20;3.90;;;2.70;;
57643;SDS011;43474;46.510;6.686;2022-08-19T03:20:50;3.13;;;2.35;;
57643;SDS011;43474;46.510;6.686;2022-08-19T03:23:19;4.57;;;2.53;;
57643;SDS011;43474;46.510;6.686;2022-08-19T03:25:45;3.97;;;2.08;;
57643;SDS011;43474;46.510;6.686;2022-08-19T03:28:14;4.35;;;2.08;;
57643;SDS011;43474;46.510;6.686;2022-08-19T03:30:41;3.20;;;1.88;;
57643;SDS011;43474;46.510;6.686;2022-08-19T03:33:09;3.80;;;1.83;;
57643;SDS011;43474;46.510;6.686;2022-08-19T03:35:37;2.15;;;1.80;;
57643;SDS011;43474;46.510;6.686;2022-08-19T03:38:04;2.13;;;1.67;;
57643;SDS011;43474;46.510;6.686;2022-08-19T03:40:32;4.55;;;2.17;;
57643;SDS011;43474;46.510;6.686;2022-08-19T03:43:01;3.58;;;1.85;;
57643;SDS011;43474;46.510;6.686;2022-08-19T03:45:27;3.03;;;2.10;;
57643;SDS011;43474;46.510;6.686;2022-08-19T03:47:54;3.25;;;1.80;;
57643;SDS011;43474;46.510;6.686;2022-08-19T03:50:20;1.83;;;1.67;;
57643;SDS011;43474;46.510;6.686;2022-08-19T03:52:49;4.00;;;2.13;;
57643;SDS011;43474;46.510;6.686;2022-08-19T03:55:16;3.53;;;2.42;;
57643;SDS011;43474;46.510;6.686;2022-08-19T03:57:42;6.53;;;2.20;;
57643;SDS011;43474;46.510;6.686;2022-08-19T04:00:08;2.97;;;2.17;;
57643;SDS011;43474;46.510;6.686;2022-08-19T04:02:34;4.28;;;2.22;;
57643;SDS011;43474;46.510;6.686;2022-08-19T04:05:00;4.65;;;2.50;;
57643;SDS011;43474;46.510;6.686;2022-08-19T04:07:26;3.22;;;2.10;;
57643;SDS011;43474;46.510;6.686;2022-08-19T04:09:51;2.97;;;2.20;;
57643;SDS011;43474;46.510;6.686;2022-08-19T04:12:18;3.90;;;2.10;;
57643;SDS011;43474;46.510;6.686;2022-08-19T04:14:46;2.38;;;1.88;;
57643;SDS011;43474;46.510;6.686;2022-08-19T04:17:11;2.58;;;2.08;;
57643;SDS011;43474;46.510;6.686;2022-08-19T04:19:38;4.70;;;2.10;;
57643;SDS011;43474;46.510;6.686;2022-08-19T04:22:05;4.45;;;2.85;;
57643;SDS011;43474;46.510;6.686;2022-08-19T04:24:32;4.05;;;1.95;;
57643;SDS011;43474;46.510;6.686;2022-08-19T04:27:02;5.38;;;2.10;;
57643;SDS011;43474;46.510;6.686;2022-08-19T04:29:28;4.25;;;1.92;;
57643;SDS011;43474;46.510;6.686;2022-08-19T04:31:55;3.78;;;2.40;;
57643;SDS011;43474;46.510;6.686;2022-08-19T04:34:24;7.07;;;2.13;;
57643;SDS011;43474;46.510;6.686;2022-08-19T04:36:53;6.43;;;2.83;;
57643;SDS011;43474;46.510;6.686;2022-08-19T04:39:21;3.35;;;2.17;;
57643;SDS011;43474;46.510;6.686;2022-08-19T04:42:09;5.38;;;2.40;;
57643;SDS011;43474;46.510;6.686;2022-08-19T04:44:53;6.88;;;3.17;;
57643;SDS011;43474;46.510;6.686;2022-08-19T04:47:19;5.40;;;2.60;;
57643;SDS011;43474;46.510;6.686;2022-08-19T04:49:45;5.47;;;2.80;;
57643;SDS011;43474;46.510;6.686;2022-08-19T04:52:11;3.38;;;2.30;;
57643;SDS011;43474;46.510;6.686;2022-08-19T04:54:37;4.22;;;2.40;;
57643;SDS011;43474;46.510;6.686;2022-08-19T04:57:02;5.95;;;2.60;;
57643;SDS011;43474;46.510;6.686;2022-08-19T04:59:31;4.13;;;2.90;;
57643;SDS011;43474;46.510;6.686;2022-08-19T05:01:57;5.60;;;2.80;;
57643;SDS011;43474;46.510;6.686;2022-08-19T05:04:23;3.38;;;2.55;;
57643;SDS011;43474;46.510;6.686;2022-08-19T05:06:49;3.83;;;2.40;;
57643;SDS011;43474;46.510;6.686;2022-08-19T05:09:15;5.43;;;2.42;;
57643;SDS011;43474;46.510;6.686;2022-08-19T05:11:42;4.18;;;2.50;;
57643;SDS011;43474;46.510;6.686;2022-08-19T05:14:11;6.28;;;2.72;;
57643;SDS011;43474;46.510;6.686;2022-08-19T05:16:40;4.50;;;2.47;;
57643;SDS011;43474;46.510;6.686;2022-08-19T05:19:06;4.35;;;2.65;;
57643;SDS011;43474;46.510;6.686;2022-08-19T05:21:50;4.10;;;2.67;;
57643;SDS011;43474;46.510;6.686;2022-08-19T05:24:34;5.35;;;2.50;;
57643;SDS011;43474;46.510;6.686;2022-08-19T05:27:01;5.55;;;2.90;;
57643;SDS011;43474;46.510;6.686;2022-08-19T05:29:28;5.28;;;2.83;;
57643;SDS011;43474;46.510;6.686;2022-08-19T05:31:59;8.50;;;3.00;;
57643;SDS011;43474;46.510;6.686;2022-08-19T05:34:25;5.68;;;3.10;;
57643;SDS011;43474;46.510;6.686;2022-08-19T05:36:56;7.50;;;2.97;;
57643;SDS011;43474;46.510;6.686;2022-08-19T05:39:29;7.35;;;3.10;;
57643;SDS011;43474;46.510;6.686;2022-08-19T05:41:58;5.75;;;2.97;;
57643;SDS011;43474;46.510;6.686;2022-08-19T05:44:29;4.70;;;2.90;;
57643;SDS011;43474;46.510;6.686;2022-08-19T05:46:59;5.60;;;2.90;;
57643;SDS011;43474;46.510;6.686;2022-08-19T05:49:27;4.47;;;2.50;;
57643;SDS011;43474;46.510;6.686;2022-08-19T05:51:54;4.25;;;2.72;;
57643;SDS011;43474;46.510;6.686;2022-08-19T05:54:21;4.60;;;2.78;;
57643;SDS011;43474;46.510;6.686;2022-08-19T05:56:48;5.32;;;2.78;;
57643;SDS011;43474;46.510;6.686;2022-08-19T05:59:16;5.55;;;2.72;;
57643;SDS011;43474;46.510;6.686;2022-08-19T06:01:43;5.80;;;2.75;;
57643;SDS011;43474;46.510;6.686;2022-08-19T06:04:11;2.85;;;2.15;;
57643;SDS011;43474;46.510;6.686;2022-08-19T06:06:38;5.30;;;2.58;;
57643;SDS011;43474;46.510;6.686;2022-08-19T06:09:05;4.97;;;2.92;;
57643;SDS011;43474;46.510;6.686;2022-08-19T06:11:46;5.43;;;2.25;;
57643;SDS011;43474;46.510;6.686;2022-08-19T06:14:15;3.40;;;2.47;;
57643;SDS011;43474;46.510;6.686;2022-08-19T06:16:43;4.95;;;2.80;;
57643;SDS011;43474;46.510;6.686;2022-08-19T06:19:12;7.00;;;2.85;;
57643;SDS011;43474;46.510;6.686;2022-08-19T06:21:42;7.40;;;2.50;;
57643;SDS011;43474;46.510;6.686;2022-08-19T06:24:09;5.38;;;3.20;;
57643;SDS011;43474;46.510;6.686;2022-08-19T06:26:37;5.78;;;3.45;;
57643;SDS011;43474;46.510;6.686;2022-08-19T06:29:05;5.78;;;3.63;;
57643;SDS011;43474;46.510;6.686;2022-08-19T06:31:34;8.90;;;3.70;;
57643;SDS011;43474;46.510;6.686;2022-08-19T06:34:01;7.50;;;3.92;;
57643;SDS011;43474;46.510;6.686;2022-08-19T06:36:30;6.55;;;3.88;;
57643;SDS011;43474;46.510;6.686;2022-08-19T06:39:02;6.80;;;3.78;;
57643;SDS011;43474;46.510;6.686;2022-08-19T06:41:31;7.85;;;3.97;;
57643;SDS011;43474;46.510;6.686;2022-08-19T06:44:00;8.13;;;3.97;;
57643;SDS011;43474;46.510;6.686;2022-08-19T06:46:26;7.78;;;3.85;;
57643;SDS011;43474;46.510;6.686;2022-08-19T06:48:52;9.25;;;4.38;;
57643;SDS011;43474;46.510;6.686;2022-08-19T06:51:20;5.82;;;4.10;;
57643;SDS011;43474;46.510;6.686;2022-08-19T06:53:53;8.07;;;4.47;;
57643;SDS011;43474;46.510;6.686;2022-08-19T06:56:21;8.43;;;4.70;;
57643;SDS011;43474;46.510;6.686;2022-08-19T06:58:50;9.45;;;5.25;;
57643;SDS011;43474;46.510;6.686;2022-08-19T07:01:18;8.68;;;4.97;;
57643;SDS011;43474;46.510;6.686;2022-08-19T07:03:45;9.05;;;4.80;;
57643;SDS011;43474;46.510;6.686;2022-08-19T07:06:12;8.20;;;4.95;;
57643;SDS011;43474;46.510;6.686;2022-08-19T07:11:09;10.13;;;4.88;;
57643;SDS011;43474;46.510;6.686;2022-08-19T07:13:38;8.43;;;4.55;;
57643;SDS011;43474;46.510;6.686;2022-08-19T07:16:05;8.00;;;4.57;;
57643;SDS011;43474;46.510;6.686;2022-08-19T07:18:35;6.97;;;4.10;;
57643;SDS011;43474;46.510;6.686;2022-08-19T07:21:05;7.07;;;4.18;;
57643;SDS011;43474;46.510;6.686;2022-08-19T07:23:34;10.27;;;4.40;;
57643;SDS011;43474;46.510;6.686;2022-08-19T07:26:08;7.10;;;4.70;;
57643;SDS011;43474;46.510;6.686;2022-08-19T07:28:35;6.32;;;4.47;;
57643;SDS011;43474;46.510;6.686;2022-08-19T07:31:07;5.65;;;4.30;;
57643;SDS011;43474;46.510;6.686;2022-08-19T07:33:35;8.02;;;4.90;;
57643;SDS011;43474;46.510;6.686;2022-08-19T07:36:05;6.13;;;4.50;;
57643;SDS011;43474;46.510;6.686;2022-08-19T07:38:33;7.68;;;5.05;;
57643;SDS011;43474;46.510;6.686;2022-08-19T07:40:59;6.75;;;5.57;;
57643;SDS011;43474;46.510;6.686;2022-08-19T07:43:26;8.52;;;5.88;;
57643;SDS011;43474;46.510;6.686;2022-08-19T07:45:53;9.38;;;6.35;;
57643;SDS011;43474;46.510;6.686;2022-08-19T07:48:22;9.07;;;6.35;;
57643;SDS011;43474;46.510;6.686;2022-08-19T07:50:54;10.10;;;6.45;;
57643;SDS011;43474;46.510;6.686;2022-08-19T07:53:22;8.52;;;5.90;;
57643;SDS011;43474;46.510;6.686;2022-08-19T07:55:50;9.05;;;6.15;;
57643;SDS011;43474;46.510;6.686;2022-08-19T07:58:19;7.18;;;5.63;;
57643;SDS011;43474;46.510;6.686;2022-08-19T08:00:49;8.80;;;6.45;;
57643;SDS011;43474;46.510;6.686;2022-08-19T08:03:17;8.05;;;6.57;;
57643;SDS011;43474;46.510;6.686;2022-08-19T08:06:08;8.77;;;6.65;;
57643;SDS011;43474;46.510;6.686;2022-08-19T08:08:53;10.93;;;6.78;;
57643;SDS011;43474;46.510;6.686;2022-08-19T08:11:41;9.52;;;7.18;;
57643;SDS011;43474;46.510;6.686;2022-08-19T08:14:17;8.98;;;6.60;;
57643;SDS011;43474;46.510;6.686;2022-08-19T08:16:48;10.30;;;7.18;;
57643;SDS011;43474;46.510;6.686;2022-08-19T08:21:59;11.95;;;7.32;;
57643;SDS011;43474;46.510;6.686;2022-08-19T08:24:29;11.32;;;7.28;;
57643;SDS011;43474;46.510;6.686;2022-08-19T08:26:57;9.13;;;7.13;;
57643;SDS011;43474;46.510;6.686;2022-08-19T08:29:27;8.35;;;7.22;;
57643;SDS011;43474;46.510;6.686;2022-08-19T08:31:54;9.70;;;7.43;;
57643;SDS011;43474;46.510;6.686;2022-08-19T08:34:21;9.50;;;7.15;;
57643;SDS011;43474;46.510;6.686;2022-08-19T08:36:47;8.40;;;7.00;;
57643;SDS011;43474;46.510;6.686;2022-08-19T08:39:18;9.32;;;6.68;;
57643;SDS011;43474;46.510;6.686;2022-08-19T08:42:01;8.68;;;7.13;;
57643;SDS011;43474;46.510;6.686;2022-08-19T08:44:40;7.32;;;6.22;;
57643;SDS011;43474;46.510;6.686;2022-08-19T08:47:13;9.13;;;6.70;;
57643;SDS011;43474;46.510;6.686;2022-08-19T08:52:19;7.85;;;6.40;;
57643;SDS011;43474;46.510;6.686;2022-08-19T08:54:52;8.35;;;6.85;;
57643;SDS011;43474;46.510;6.686;2022-08-19T08:57:22;10.07;;;6.95;;
57643;SDS011;43474;46.510;6.686;2022-08-19T08:59:54;9.55;;;6.82;;
57643;SDS011;43474;46.510;6.686;2022-08-19T09:02:22;9.07;;;6.82;;
57643;SDS011;43474;46.510;6.686;2022-08-19T09:04:49;8.68;;;6.45;;
57643;SDS011;43474;46.510;6.686;2022-08-19T09:10:49;8.10;;;6.67;;
57643;SDS011;43474;46.510;6.686;2022-08-19T09:13:01;7.50;;;6.57;;
57643;SDS011;43474;46.510;6.686;2022-08-19T09:15:45;7.82;;;6.10;;
57643;SDS011;43474;46.510;6.686;2022-08-19T09:18:16;9.82;;;7.88;;
57643;SDS011;43474;46.510;6.686;2022-08-19T09:20:42;9.25;;;7.60;;
57643;SDS011;43474;46.510;6.686;2022-08-19T09:23:08;9.18;;;7.30;;
57643;SDS011;43474;46.510;6.686;2022-08-19T09:25:36;11.13;;;8.38;;
57643;SDS011;43474;46.510;6.686;2022-08-19T09:28:01;8.80;;;7.53;;
57643;SDS011;43474;46.510;6.686;2022-08-19T09:30:29;10.55;;;8.38;;
57643;SDS011;43474;46.510;6.686;2022-08-19T09:32:56;8.45;;;7.25;;
57643;SDS011;43474;46.510;6.686;2022-08-19T09:35:23;8.38;;;7.47;;
57643;SDS011;43474;46.510;6.686;2022-08-19T09:37:51;9.80;;;7.05;;
57643;SDS011;43474;46.510;6.686;2022-08-19T09:40:18;7.68;;;6.88;;
57643;SDS011;43474;46.510;6.686;2022-08-19T09:42:44;8.32;;;7.43;;
57643;SDS011;43474;46.510;6.686;2022-08-19T09:45:12;7.95;;;6.97;;
57643;SDS011;43474;46.510;6.686;2022-08-19T09:47:43;9.57;;;7.00;;
57643;SDS011;43474;46.510;6.686;2022-08-19T09:50:11;7.78;;;6.72;;
57643;SDS011;43474;46.510;6.686;2022-08-19T09:52:38;9.10;;;6.40;;
57643;SDS011;43474;46.510;6.686;2022-08-19T09:55:04;9.65;;;7.43;;
57643;SDS011;43474;46.510;6.686;2022-08-19T09:57:31;8.52;;;6.90;;
57643;SDS011;43474;46.510;6.686;2022-08-19T09:59:56;8.35;;;6.70;;
57643;SDS011;43474;46.510;6.686;2022-08-19T10:02:22;8.90;;;7.13;;
57643;SDS011;43474;46.510;6.686;2022-08-19T10:04:48;10.10;;;6.53;;
57643;SDS011;43474;46.510;6.686;2022-08-19T10:07:49;8.35;;;7.10;;
57643;SDS011;43474;46.510;6.686;2022-08-19T10:10:15;9.40;;;7.28;;
57643;SDS011;43474;46.510;6.686;2022-08-19T10:12:41;11.57;;;8.40;;
57643;SDS011;43474;46.510;6.686;2022-08-19T10:15:12;8.23;;;7.30;;
57643;SDS011;43474;46.510;6.686;2022-08-19T10:17:38;7.28;;;6.40;;
57643;SDS011;43474;46.510;6.686;2022-08-19T10:20:04;8.55;;;6.57;;
57643;SDS011;43474;46.510;6.686;2022-08-19T10:22:37;9.40;;;6.05;;
57643;SDS011;43474;46.510;6.686;2022-08-19T10:25:06;8.23;;;6.88;;
57643;SDS011;43474;46.510;6.686;2022-08-19T10:27:32;8.15;;;6.05;;
57643;SDS011;43474;46.510;6.686;2022-08-19T10:29:58;7.15;;;5.60;;
57643;SDS011;43474;46.510;6.686;2022-08-19T10:32:23;5.95;;;5.35;;
57643;SDS011;43474;46.510;6.686;2022-08-19T10:34:55;6.22;;;5.30;;
57643;SDS011;43474;46.510;6.686;2022-08-19T10:37:24;8.00;;;5.47;;
57643;SDS011;43474;46.510;6.686;2022-08-19T10:39:50;7.13;;;6.05;;
57643;SDS011;43474;46.510;6.686;2022-08-19T10:42:16;6.20;;;5.35;;
57643;SDS011;43474;46.510;6.686;2022-08-19T10:44:43;7.07;;;5.50;;
57643;SDS011;43474;46.510;6.686;2022-08-19T10:47:10;6.40;;;5.63;;
57643;SDS011;43474;46.510;6.686;2022-08-19T10:49:36;5.38;;;4.88;;
57643;SDS011;43474;46.510;6.686;2022-08-19T10:52:25;8.02;;;5.57;;
57643;SDS011;43474;46.510;6.686;2022-08-19T10:55:00;8.88;;;6.35;;
57643;SDS011;43474;46.510;6.686;2022-08-19T10:57:47;6.90;;;5.93;;
57643;SDS011;43474;46.510;6.686;2022-08-19T11:00:15;6.97;;;5.63;;
57643;SDS011;43474;46.510;6.686;2022-08-19T11:02:43;6.65;;;5.70;;
57643;SDS011;43474;46.510;6.686;2022-08-19T11:05:16;7.05;;;5.95;;
57643;SDS011;43474;46.510;6.686;2022-08-19T11:07:42;7.57;;;6.07;;
57643;SDS011;43474;46.510;6.686;2022-08-19T11:11:03;6.18;;;5.55;;
57643;SDS011;43474;46.510;6.686;2022-08-19T11:17:12;6.60;;;5.72;;
57643;SDS011;43474;46.510;6.686;2022-08-19T11:19:56;7.88;;;5.93;;
57643;SDS011;43474;46.510;6.686;2022-08-19T11:22:47;7.00;;;6.30;;
57643;SDS011;43474;46.510;6.686;2022-08-19T11:25:54;7.03;;;6.20;;
57643;SDS011;43474;46.510;6.686;2022-08-19T11:28:52;7.35;;;5.82;;
57643;SDS011;43474;46.510;6.686;2022-08-19T11:31:36;7.85;;;6.35;;
57643;SDS011;43474;46.510;6.686;2022-08-19T11:34:47;7.63;;;6.40;;
57643;SDS011;43474;46.510;6.686;2022-08-19T11:37:53;7.28;;;6.40;;
57643;SDS011;43474;46.510;6.686;2022-08-19T11:41:06;7.10;;;5.60;;
57643;SDS011;43474;46.510;6.686;2022-08-19T11:47:58;7.72;;;6.63;;
57643;SDS011;43474;46.510;6.686;2022-08-19T11:50:56;6.28;;;5.68;;
57643;SDS011;43474;46.510;6.686;2022-08-19T11:53:51;14.63;;;6.40;;
57643;SDS011;43474;46.510;6.686;2022-08-19T11:56:54;7.35;;;6.50;;
57643;SDS011;43474;46.510;6.686;2022-08-19T11:59:32;12.27;;;5.97;;
57643;SDS011;43474;46.510;6.686;2022-08-19T12:02:14;6.60;;;5.80;;
57643;SDS011;43474;46.510;6.686;2022-08-19T12:04:45;5.97;;;5.38;;
57643;SDS011;43474;46.510;6.686;2022-08-19T12:07:27;5.82;;;5.28;;
57643;SDS011;43474;46.510;6.686;2022-08-19T12:09:54;5.95;;;5.35;;
57643;SDS011;43474;46.510;6.686;2022-08-19T12:12:26;6.38;;;5.55;;
57643;SDS011;43474;46.510;6.686;2022-08-19T12:14:54;5.63;;;5.13;;
57643;SDS011;43474;46.510;6.686;2022-08-19T12:17:24;5.80;;;5.20;;
57643;SDS011;43474;46.510;6.686;2022-08-19T12:19:52;6.97;;;5.25;;
57643;SDS011;43474;46.510;6.686;2022-08-19T12:22:18;5.65;;;4.97;;
57643;SDS011;43474;46.510;6.686;2022-08-19T12:24:47;5.53;;;5.03;;
57643;SDS011;43474;46.510;6.686;2022-08-19T12:27:18;5.90;;;5.30;;
57643;SDS011;43474;46.510;6.686;2022-08-19T12:29:46;6.85;;;5.63;;
57643;SDS011;43474;46.510;6.686;2022-08-19T12:32:12;6.90;;;5.30;;
57643;SDS011;43474;46.510;6.686;2022-08-19T12:34:38;6.97;;;5.47;;
57643;SDS011;43474;46.510;6.686;2022-08-19T12:37:05;6.13;;;5.53;;
57643;SDS011;43474;46.510;6.686;2022-08-19T12:39:36;7.82;;;5.28;;
57643;SDS011;43474;46.510;6.686;2022-08-19T12:42:03;6.57;;;5.65;;
57643;SDS011;43474;46.510;6.686;2022-08-19T12:44:29;5.97;;;4.70;;
57643;SDS011;43474;46.510;6.686;2022-08-19T12:46:55;6.28;;;5.68;;
57643;SDS011;43474;46.510;6.686;2022-08-19T12:49:22;7.00;;;5.70;;
57643;SDS011;43474;46.510;6.686;2022-08-19T12:51:47;7.80;;;5.05;;
57643;SDS011;43474;46.510;6.686;2022-08-19T12:54:13;6.18;;;5.57;;
57643;SDS011;43474;46.510;6.686;2022-08-19T12:56:39;5.90;;;5.00;;
57643;SDS011;43474;46.510;6.686;2022-08-19T12:59:06;6.35;;;5.57;;
57643;SDS011;43474;46.510;6.686;2022-08-19T13:01:33;5.90;;;5.00;;
57643;SDS011;43474;46.510;6.686;2022-08-19T13:03:59;6.22;;;5.63;;
57643;SDS011;43474;46.510;6.686;2022-08-19T13:06:25;6.28;;;5.68;;
57643;SDS011;43474;46.510;6.686;2022-08-19T13:08:51;6.18;;;5.45;;
57643;SDS011;43474;46.510;6.686;2022-08-19T13:11:17;6.95;;;6.25;;
57643;SDS011;43474;46.510;6.686;2022-08-19T13:13:46;5.95;;;5.00;;
57643;SDS011;43474;46.510;6.686;2022-08-19T13:16:13;6.40;;;5.70;;
57643;SDS011;43474;46.510;6.686;2022-08-19T13:18:40;6.32;;;5.70;;
57643;SDS011;43474;46.510;6.686;2022-08-19T13:21:07;6.13;;;5.53;;
57643;SDS011;43474;46.510;6.686;2022-08-19T13:23:34;6.93;;;6.05;;
57643;SDS011;43474;46.510;6.686;2022-08-19T13:26:02;6.30;;;5.70;;
57643;SDS011;43474;46.510;6.686;2022-08-19T13:28:30;6.15;;;5.50;;
57643;SDS011;43474;46.510;6.686;2022-08-19T13:31:18;7.20;;;6.50;;
57643;SDS011;43474;46.510;6.686;2022-08-19T13:34:04;7.40;;;6.60;;
57643;SDS011;43474;46.510;6.686;2022-08-19T13:36:31;6.55;;;5.85;;
57643;SDS011;43474;46.510;6.686;2022-08-19T13:38:57;6.82;;;6.13;;
57643;SDS011;43474;46.510;6.686;2022-08-19T13:41:23;6.53;;;5.85;;
57643;SDS011;43474;46.510;6.686;2022-08-19T13:43:49;7.13;;;6.07;;
57643;SDS011;43474;46.510;6.686;2022-08-19T13:46:14;6.85;;;6.15;;
57643;SDS011;43474;46.510;6.686;2022-08-19T13:48:40;6.93;;;6.22;;
57643;SDS011;43474;46.510;6.686;2022-08-19T13:51:07;6.97;;;6.28;;
57643;SDS011;43474;46.510;6.686;2022-08-19T13:53:38;7.15;;;6.30;;
57643;SDS011;43474;46.510;6.686;2022-08-19T13:56:08;7.35;;;6.30;;
57643;SDS011;43474;46.510;6.686;2022-08-19T13:58:40;6.70;;;5.85;;
57643;SDS011;43474;46.510;6.686;2022-08-19T14:01:06;7.60;;;6.80;;
57643;SDS011;43474;46.510;6.686;2022-08-19T14:03:32;7.95;;;7.15;;
57643;SDS011;43474;46.510;6.686;2022-08-19T14:05:58;7.50;;;6.70;;
57643;SDS011;43474;46.510;6.686;2022-08-19T14:08:25;7.85;;;7.05;;
57643;SDS011;43474;46.510;6.686;2022-08-19T14:10:53;7.63;;;6.07;;
57643;SDS011;43474;46.510;6.686;2022-08-19T14:13:20;8.32;;;6.72;;
57643;SDS011;43474;46.510;6.686;2022-08-19T14:15:47;10.02;;;7.13;;
57643;SDS011;43474;46.510;6.686;2022-08-19T14:18:13;7.22;;;6.53;;
57643;SDS011;43474;46.510;6.686;2022-08-19T14:20:40;9.35;;;7.05;;
57643;SDS011;43474;46.510;6.686;2022-08-19T14:23:06;8.05;;;6.45;;
57643;SDS011;43474;46.510;6.686;2022-08-19T14:25:31;8.43;;;6.40;;
57643;SDS011;43474;46.510;6.686;2022-08-19T14:27:57;7.10;;;6.40;;
57643;SDS011;43474;46.510;6.686;2022-08-19T14:30:25;7.75;;;6.20;;
57643;SDS011;43474;46.510;6.686;2022-08-19T14:32:56;7.82;;;6.43;;
57643;SDS011;43474;46.510;6.686;2022-08-19T14:35:23;8.43;;;6.80;;
57643;SDS011;43474;46.510;6.686;2022-08-19T14:37:50;8.20;;;6.60;;
57643;SDS011;43474;46.510;6.686;2022-08-19T14:40:21;9.05;;;6.25;;
57643;SDS011;43474;46.510;6.686;2022-08-19T14:42:54;8.07;;;6.65;;
57643;SDS011;43474;46.510;6.686;2022-08-19T14:45:27;9.00;;;7.45;;
57643;SDS011;43474;46.510;6.686;2022-08-19T14:47:53;8.50;;;7.00;;
57643;SDS011;43474;46.510;6.686;2022-08-19T14:50:19;8.65;;;6.72;;
57643;SDS011;43474;46.510;6.686;2022-08-19T14:52:45;9.65;;;7.28;;
57643;SDS011;43474;46.510;6.686;2022-08-19T14:55:13;9.15;;;7.78;;
57643;SDS011;43474;46.510;6.686;2022-08-19T14:57:40;8.63;;;6.90;;
57643;SDS011;43474;46.510;6.686;2022-08-19T15:00:06;8.25;;;7.10;;
57643;SDS011;43474;46.510;6.686;2022-08-19T15:02:36;9.40;;;7.73;;
57643;SDS011;43474;46.510;6.686;2022-08-19T15:05:02;7.88;;;7.07;;
57643;SDS011;43474;46.510;6.686;2022-08-19T15:07:28;8.70;;;7.07;;
57643;SDS011;43474;46.510;6.686;2022-08-19T15:09:54;9.40;;;7.28;;
57643;SDS011;43474;46.510;6.686;2022-08-19T15:12:19;7.80;;;6.90;;
57643;SDS011;43474;46.510;6.686;2022-08-19T15:14:45;9.43;;;7.25;;
57643;SDS011;43474;46.510;6.686;2022-08-19T15:17:15;8.60;;;6.82;;
57643;SDS011;43474;46.510;6.686;2022-08-19T15:19:42;7.95;;;6.93;;
57643;SDS011;43474;46.510;6.686;2022-08-19T15:22:08;10.02;;;6.97;;
57643;SDS011;43474;46.510;6.686;2022-08-19T15:24:33;9.10;;;7.38;;
57643;SDS011;43474;46.510;6.686;2022-08-19T15:27:00;8.73;;;7.53;;
57643;SDS011;43474;46.510;6.686;2022-08-19T15:29:26;10.88;;;8.10;;
57643;SDS011;43474;46.510;6.686;2022-08-19T15:31:52;9.00;;;7.28;;